GEOFB HKMO-OMDB
Flight info
| Callsign | GEOFB |
|---|---|
| Flight time | N/A |
| Altitude | 37000 |
| Route | ESRIN2AXAVUDU/21 AVUDU UL431 RAGGS UL437 APMOL/N0522F390 UL437 VEDET B400 DAXAM Y414 DEDSO R401 VELIK/N0519F400 R401 MUSAP/N0532F350 R401 PEDOG Q308 KIPOK/N0511F340 Q568 IMPED |
| Aircraft | C750/M-SBDE3FGHRWXY/S |
Departure
| Time | N/A |
|---|---|
| Airport | Moi International Airport (HKMO) |
Arrival
| Time | 2026-04-26 12:29 |
|---|---|
| Airport | Dubai International Airport (OMDB) |
| Time | Latitude | Longitude | Altitude | Speed | Heading |
|---|---|---|---|---|---|
| 2026-04-26 08:28 | -1.58793 | 41.93179 | 36970 ft | 509 kts | 49° |
| 2026-04-26 08:28 | -1.54189 | 41.98552 | 36972 ft | 509 kts | 50° |
| 2026-04-26 08:29 | -1.49591 | 42.03910 | 36967 ft | 507 kts | 49° |
| 2026-04-26 08:29 | -1.44998 | 42.09265 | 36967 ft | 507 kts | 49° |
| 2026-04-26 08:30 | -1.40431 | 42.14588 | 36966 ft | 509 kts | 49° |
| 2026-04-26 08:30 | -1.35805 | 42.19980 | 36963 ft | 512 kts | 50° |
| 2026-04-26 08:31 | -1.31160 | 42.25393 | 36963 ft | 513 kts | 49° |
| 2026-04-26 08:31 | -1.26517 | 42.30803 | 36961 ft | 513 kts | 49° |
| 2026-04-26 08:32 | -1.21999 | 42.36068 | 36963 ft | 513 kts | 49° |
| 2026-04-26 08:32 | -1.17382 | 42.41449 | 36953 ft | 513 kts | 50° |
| 2026-04-26 08:33 | -1.12727 | 42.46872 | 36951 ft | 514 kts | 50° |
| 2026-04-26 08:33 | -1.08072 | 42.52296 | 36947 ft | 513 kts | 49° |
| 2026-04-26 08:34 | -1.03425 | 42.57709 | 36948 ft | 513 kts | 49° |
| 2026-04-26 08:34 | -0.98775 | 42.63128 | 36949 ft | 514 kts | 49° |
| 2026-04-26 08:35 | -0.94124 | 42.68545 | 36953 ft | 518 kts | 49° |
| 2026-04-26 08:35 | -0.89438 | 42.74004 | 36955 ft | 518 kts | 49° |
| 2026-04-26 08:36 | -0.84749 | 42.79466 | 36956 ft | 517 kts | 49° |
| 2026-04-26 08:36 | -0.80058 | 42.84930 | 36952 ft | 518 kts | 49° |
| 2026-04-26 08:37 | -0.75389 | 42.90368 | 36952 ft | 519 kts | 49° |
| 2026-04-26 08:37 | -0.70689 | 42.95842 | 36952 ft | 519 kts | 49° |
| 2026-04-26 08:38 | -0.65987 | 43.01318 | 36952 ft | 519 kts | 49° |
| 2026-04-26 08:38 | -0.61291 | 43.06786 | 36951 ft | 518 kts | 49° |
| 2026-04-26 08:39 | -0.56595 | 43.12256 | 36956 ft | 519 kts | 49° |
| 2026-04-26 08:39 | -0.51943 | 43.17673 | 36956 ft | 516 kts | 49° |
| 2026-04-26 08:40 | -0.47263 | 43.23123 | 36952 ft | 517 kts | 49° |
| 2026-04-26 08:40 | -0.42601 | 43.28552 | 36950 ft | 514 kts | 49° |
| 2026-04-26 08:41 | -0.37946 | 43.33972 | 36950 ft | 514 kts | 49° |
| 2026-04-26 08:41 | -0.33313 | 43.39367 | 36952 ft | 515 kts | 49° |
| 2026-04-26 08:42 | -0.28656 | 43.44790 | 36950 ft | 514 kts | 49° |
| 2026-04-26 08:42 | -0.24011 | 43.50199 | 36949 ft | 513 kts | 49° |
| 2026-04-26 08:43 | -0.19359 | 43.55615 | 36954 ft | 513 kts | 49° |
| 2026-04-26 08:43 | -0.14743 | 43.60990 | 36949 ft | 513 kts | 49° |
| 2026-04-26 08:44 | -0.10093 | 43.66405 | 36948 ft | 515 kts | 49° |
| 2026-04-26 08:44 | -0.05426 | 43.71838 | 36946 ft | 515 kts | 49° |
| 2026-04-26 08:45 | -0.00768 | 43.77263 | 36950 ft | 514 kts | 49° |
| 2026-04-26 08:45 | 0.03879 | 43.82673 | 36940 ft | 512 kts | 49° |
| 2026-04-26 08:46 | 0.08495 | 43.88049 | 36939 ft | 513 kts | 49° |
| 2026-04-26 08:46 | 0.13136 | 43.93452 | 36936 ft | 513 kts | 49° |
| 2026-04-26 08:47 | 0.17786 | 43.98867 | 36949 ft | 513 kts | 49° |
| 2026-04-26 08:47 | 0.22430 | 44.04274 | 36940 ft | 512 kts | 49° |
| 2026-04-26 08:48 | 0.27032 | 44.09633 | 36942 ft | 511 kts | 49° |
| 2026-04-26 08:48 | 0.31692 | 44.14968 | 36925 ft | 509 kts | 45° |
| 2026-04-26 08:49 | 0.37281 | 44.19290 | 36934 ft | 509 kts | 33° |
| 2026-04-26 08:49 | 0.43211 | 44.23162 | 36943 ft | 509 kts | 34° |
| 2026-04-26 08:50 | 0.48992 | 44.27146 | 36939 ft | 508 kts | 34° |
| 2026-04-26 08:50 | 0.54882 | 44.31050 | 36939 ft | 508 kts | 34° |
| 2026-04-26 08:51 | 0.63668 | 44.36998 | 36940 ft | 509 kts | 34° |
| 2026-04-26 08:52 | 0.69544 | 44.40949 | 36937 ft | 509 kts | 34° |
| 2026-04-26 08:52 | 0.75406 | 44.44905 | 36938 ft | 508 kts | 34° |
| 2026-04-26 08:53 | 0.81226 | 44.48820 | 36934 ft | 508 kts | 34° |
| 2026-04-26 08:53 | 0.87083 | 44.52770 | 36936 ft | 508 kts | 34° |
| 2026-04-26 08:54 | 0.92948 | 44.56719 | 36940 ft | 508 kts | 34° |
| 2026-04-26 08:54 | 0.98809 | 44.60670 | 36940 ft | 508 kts | 34° |
| 2026-04-26 08:55 | 1.04628 | 44.64589 | 36935 ft | 507 kts | 34° |
| 2026-04-26 08:55 | 1.10483 | 44.68535 | 36938 ft | 508 kts | 34° |
| 2026-04-26 08:56 | 1.16338 | 44.72480 | 36941 ft | 508 kts | 34° |
| 2026-04-26 08:56 | 1.22197 | 44.76428 | 36942 ft | 508 kts | 34° |
| 2026-04-26 08:57 | 1.28052 | 44.80375 | 36939 ft | 508 kts | 34° |
| 2026-04-26 08:57 | 1.33869 | 44.84295 | 36944 ft | 508 kts | 34° |
| 2026-04-26 08:58 | 1.39724 | 44.88241 | 36944 ft | 508 kts | 34° |
| 2026-04-26 08:58 | 1.45579 | 44.92188 | 36950 ft | 508 kts | 34° |
| 2026-04-26 08:59 | 1.51435 | 44.96135 | 36956 ft | 508 kts | 34° |
| 2026-04-26 08:59 | 1.57253 | 45.00057 | 36956 ft | 508 kts | 34° |
| 2026-04-26 09:00 | 1.63096 | 45.03996 | 36960 ft | 506 kts | 34° |
| 2026-04-26 09:00 | 1.68922 | 45.07925 | 36959 ft | 505 kts | 34° |
| 2026-04-26 09:01 | 1.74753 | 45.11857 | 36964 ft | 506 kts | 34° |
| 2026-04-26 09:01 | 1.80591 | 45.15793 | 36965 ft | 506 kts | 34° |
| 2026-04-26 09:02 | 1.86384 | 45.19700 | 36972 ft | 506 kts | 34° |
| 2026-04-26 09:02 | 1.92199 | 45.23622 | 36975 ft | 504 kts | 34° |
| 2026-04-26 09:03 | 1.98021 | 45.27548 | 36975 ft | 505 kts | 34° |
| 2026-04-26 09:03 | 2.03902 | 45.31292 | 36963 ft | 505 kts | 32° |
| 2026-04-26 09:04 | 2.09945 | 45.34867 | 36960 ft | 505 kts | 32° |
| 2026-04-26 09:04 | 2.15962 | 45.38494 | 36957 ft | 505 kts | 32° |
| 2026-04-26 09:05 | 2.21994 | 45.42088 | 36962 ft | 505 kts | 32° |
| 2026-04-26 09:05 | 2.28018 | 45.45700 | 36960 ft | 505 kts | 32° |
| 2026-04-26 09:06 | 2.34044 | 45.49301 | 36956 ft | 505 kts | 32° |
| 2026-04-26 09:06 | 2.40025 | 45.52883 | 36958 ft | 505 kts | 32° |
| 2026-04-26 09:07 | 2.46056 | 45.56492 | 36951 ft | 505 kts | 32° |
| 2026-04-26 09:07 | 2.52080 | 45.60099 | 36953 ft | 506 kts | 32° |
| 2026-04-26 09:08 | 2.58117 | 45.63712 | 36953 ft | 506 kts | 32° |
| 2026-04-26 09:08 | 2.64114 | 45.67303 | 36953 ft | 506 kts | 32° |
| 2026-04-26 09:09 | 2.70145 | 45.70914 | 36952 ft | 506 kts | 32° |
| 2026-04-26 09:09 | 2.76181 | 45.74529 | 36944 ft | 506 kts | 32° |
| 2026-04-26 09:10 | 2.82214 | 45.78143 | 36938 ft | 506 kts | 32° |
| 2026-04-26 09:10 | 2.88264 | 45.81767 | 36939 ft | 507 kts | 32° |
| 2026-04-26 09:11 | 2.94269 | 45.85365 | 36939 ft | 507 kts | 32° |
| 2026-04-26 09:11 | 3.00315 | 45.88987 | 36938 ft | 506 kts | 32° |
| 2026-04-26 09:12 | 3.06361 | 45.92611 | 36937 ft | 506 kts | 32° |
| 2026-04-26 09:12 | 3.12405 | 45.96233 | 36937 ft | 506 kts | 32° |
| 2026-04-26 09:13 | 3.18465 | 45.99865 | 36938 ft | 509 kts | 32° |
| 2026-04-26 09:13 | 3.24491 | 46.03478 | 36937 ft | 508 kts | 32° |
| 2026-04-26 09:14 | 3.30554 | 46.07113 | 36934 ft | 508 kts | 32° |
| 2026-04-26 09:14 | 3.36604 | 46.10741 | 36930 ft | 507 kts | 32° |
| 2026-04-26 09:15 | 3.42656 | 46.14371 | 36932 ft | 507 kts | 32° |
| 2026-04-26 09:15 | 3.48666 | 46.17976 | 36929 ft | 508 kts | 32° |
| 2026-04-26 09:16 | 3.54733 | 46.21616 | 36928 ft | 508 kts | 32° |
| 2026-04-26 09:16 | 3.60794 | 46.25253 | 36927 ft | 506 kts | 32° |
| 2026-04-26 09:17 | 3.66834 | 46.28877 | 36922 ft | 506 kts | 32° |
| 2026-04-26 09:17 | 3.72836 | 46.32480 | 36922 ft | 506 kts | 32° |
| 2026-04-26 09:18 | 3.78879 | 46.36108 | 36923 ft | 506 kts | 32° |
| 2026-04-26 09:18 | 3.84931 | 46.39741 | 36921 ft | 508 kts | 32° |
| 2026-04-26 09:19 | 3.90976 | 46.43372 | 36913 ft | 506 kts | 32° |
| 2026-04-26 09:19 | 3.97024 | 46.47004 | 36913 ft | 507 kts | 32° |
| 2026-04-26 09:20 | 4.03028 | 46.50611 | 36908 ft | 507 kts | 32° |
| 2026-04-26 09:20 | 4.09076 | 46.54245 | 36908 ft | 507 kts | 32° |
| 2026-04-26 09:21 | 4.15116 | 46.57874 | 36900 ft | 507 kts | 32° |
| 2026-04-26 09:21 | 4.21177 | 46.61517 | 36899 ft | 508 kts | 32° |
| 2026-04-26 09:22 | 4.27203 | 46.65140 | 36900 ft | 508 kts | 32° |
| 2026-04-26 09:22 | 4.33264 | 46.68784 | 36898 ft | 508 kts | 32° |
| 2026-04-26 09:23 | 4.39329 | 46.72432 | 36895 ft | 508 kts | 32° |
| 2026-04-26 09:23 | 4.45389 | 46.76077 | 36897 ft | 508 kts | 32° |
| 2026-04-26 09:24 | 4.51453 | 46.79725 | 36893 ft | 509 kts | 32° |
| 2026-04-26 09:24 | 4.57524 | 46.83378 | 36893 ft | 509 kts | 32° |
| 2026-04-26 09:25 | 4.63547 | 46.87003 | 36895 ft | 509 kts | 32° |
| 2026-04-26 09:25 | 4.69616 | 46.90656 | 36892 ft | 509 kts | 32° |
| 2026-04-26 09:26 | 4.75678 | 46.94307 | 36891 ft | 507 kts | 32° |
| 2026-04-26 09:26 | 4.81728 | 46.97949 | 36885 ft | 508 kts | 32° |
| 2026-04-26 09:27 | 4.87752 | 47.01578 | 36883 ft | 508 kts | 32° |
| 2026-04-26 09:27 | 4.93817 | 47.05232 | 36882 ft | 508 kts | 32° |
| 2026-04-26 09:28 | 4.99880 | 47.08886 | 36884 ft | 508 kts | 32° |
| 2026-04-26 09:28 | 5.05929 | 47.12532 | 36880 ft | 506 kts | 31° |
| 2026-04-26 09:29 | 5.11972 | 47.16175 | 36880 ft | 506 kts | 31° |
| 2026-04-26 09:29 | 5.17968 | 47.19791 | 36878 ft | 507 kts | 31° |
| 2026-04-26 09:30 | 5.24016 | 47.23438 | 36881 ft | 507 kts | 31° |
| 2026-04-26 09:30 | 5.30064 | 47.27087 | 36879 ft | 507 kts | 31° |
| 2026-04-26 09:31 | 5.36097 | 47.30728 | 36877 ft | 505 kts | 31° |
| 2026-04-26 09:31 | 5.42081 | 47.34340 | 36876 ft | 505 kts | 31° |
| 2026-04-26 09:32 | 5.48106 | 47.37977 | 36877 ft | 505 kts | 31° |
| 2026-04-26 09:32 | 5.54136 | 47.41617 | 36874 ft | 506 kts | 31° |
| 2026-04-26 09:33 | 5.60169 | 47.45262 | 36876 ft | 506 kts | 31° |
| 2026-04-26 09:33 | 5.65169 | 47.48282 | 36876 ft | 503 kts | 31° |
| 2026-04-26 09:34 | 5.72125 | 47.52539 | 36873 ft | 504 kts | 32° |
| 2026-04-26 09:34 | 5.78114 | 47.56207 | 36873 ft | 504 kts | 31° |
| 2026-04-26 09:35 | 5.83088 | 47.59252 | 36877 ft | 504 kts | 32° |
| 2026-04-26 09:35 | 5.89072 | 47.62924 | 36874 ft | 504 kts | 31° |
| 2026-04-26 09:36 | 5.96030 | 47.67187 | 36875 ft | 504 kts | 31° |
| 2026-04-26 09:36 | 6.01046 | 47.70265 | 36875 ft | 504 kts | 31° |
| 2026-04-26 09:37 | 6.06996 | 47.73912 | 36876 ft | 504 kts | 31° |
| 2026-04-26 09:37 | 6.12986 | 47.77588 | 36876 ft | 504 kts | 31° |
| 2026-04-26 09:38 | 6.18967 | 47.81258 | 36875 ft | 504 kts | 31° |
| 2026-04-26 09:38 | 6.24948 | 47.84930 | 36879 ft | 503 kts | 31° |
| 2026-04-26 09:39 | 6.30878 | 47.88570 | 36878 ft | 503 kts | 31° |
| 2026-04-26 09:39 | 6.36848 | 47.92237 | 36875 ft | 503 kts | 31° |
| 2026-04-26 09:40 | 6.42817 | 47.95905 | 36877 ft | 503 kts | 31° |
| 2026-04-26 09:40 | 6.48786 | 47.99572 | 36875 ft | 503 kts | 31° |
| 2026-04-26 09:41 | 6.54755 | 48.03241 | 36876 ft | 503 kts | 31° |
| 2026-04-26 09:41 | 6.60679 | 48.06883 | 36876 ft | 503 kts | 31° |
| 2026-04-26 09:42 | 6.66649 | 48.10555 | 36876 ft | 503 kts | 31° |
| 2026-04-26 09:42 | 6.72612 | 48.14224 | 36870 ft | 503 kts | 31° |
| 2026-04-26 09:43 | 6.78578 | 48.17895 | 36868 ft | 503 kts | 31° |
| 2026-04-26 09:43 | 6.84507 | 48.21545 | 36868 ft | 503 kts | 31° |
| 2026-04-26 09:44 | 6.90470 | 48.25217 | 36869 ft | 503 kts | 31° |
| 2026-04-26 09:44 | 6.96433 | 48.28890 | 36872 ft | 503 kts | 31° |
| 2026-04-26 09:45 | 7.02405 | 48.32569 | 36869 ft | 503 kts | 31° |
| 2026-04-26 09:45 | 7.08366 | 48.36243 | 36872 ft | 503 kts | 31° |
| 2026-04-26 09:46 | 7.14283 | 48.39891 | 36866 ft | 501 kts | 31° |
| 2026-04-26 09:46 | 7.20229 | 48.43557 | 36874 ft | 501 kts | 31° |
| 2026-04-26 09:47 | 7.26179 | 48.47228 | 36877 ft | 502 kts | 31° |
| 2026-04-26 09:47 | 7.32130 | 48.50900 | 36880 ft | 502 kts | 31° |
| 2026-04-26 09:48 | 7.38050 | 48.54531 | 36873 ft | 502 kts | 30° |
| 2026-04-26 09:48 | 7.44044 | 48.58129 | 36880 ft | 501 kts | 30° |
| 2026-04-26 09:49 | 7.50003 | 48.61760 | 36881 ft | 501 kts | 30° |
| 2026-04-26 09:49 | 7.55985 | 48.65371 | 36888 ft | 501 kts | 30° |
| 2026-04-26 09:50 | 7.61917 | 48.68977 | 36882 ft | 501 kts | 30° |
| 2026-04-26 09:50 | 7.67894 | 48.72596 | 36891 ft | 501 kts | 30° |
| 2026-04-26 09:51 | 7.73861 | 48.76219 | 36883 ft | 500 kts | 30° |
| 2026-04-26 09:51 | 7.79825 | 48.79836 | 36890 ft | 500 kts | 30° |
| 2026-04-26 09:52 | 7.85746 | 48.83431 | 36888 ft | 500 kts | 30° |
| 2026-04-26 09:52 | 7.94694 | 48.88865 | 36887 ft | 500 kts | 30° |
| 2026-04-26 09:53 | 8.00654 | 48.92486 | 36887 ft | 500 kts | 30° |
| 2026-04-26 09:53 | 8.06604 | 48.96102 | 36892 ft | 498 kts | 30° |
| 2026-04-26 09:54 | 8.12500 | 48.99687 | 36895 ft | 498 kts | 30° |
| 2026-04-26 09:54 | 8.18440 | 49.03300 | 36897 ft | 499 kts | 30° |
| 2026-04-26 09:55 | 8.24382 | 49.06915 | 36891 ft | 498 kts | 30° |
| 2026-04-26 09:55 | 8.30319 | 49.10529 | 36878 ft | 498 kts | 30° |
| 2026-04-26 09:56 | 8.36241 | 49.14134 | 36883 ft | 496 kts | 30° |
| 2026-04-26 09:56 | 8.42116 | 49.17712 | 36883 ft | 497 kts | 30° |
| 2026-04-26 09:57 | 8.48034 | 49.21318 | 36881 ft | 497 kts | 30° |
| 2026-04-26 09:57 | 8.53951 | 49.24924 | 36890 ft | 497 kts | 30° |
| 2026-04-26 09:58 | 8.59869 | 49.28533 | 36888 ft | 497 kts | 30° |
| 2026-04-26 09:58 | 8.65743 | 49.32116 | 36891 ft | 495 kts | 30° |
| 2026-04-26 09:59 | 8.71643 | 49.35721 | 36890 ft | 496 kts | 30° |
| 2026-04-26 09:59 | 8.77536 | 49.39320 | 36891 ft | 496 kts | 30° |
| 2026-04-26 10:00 | 8.83444 | 49.42931 | 36891 ft | 495 kts | 30° |
| 2026-04-26 10:00 | 8.89299 | 49.46510 | 36896 ft | 495 kts | 30° |
| 2026-04-26 10:01 | 8.95197 | 49.50118 | 36898 ft | 496 kts | 30° |
| 2026-04-26 10:01 | 9.01098 | 49.53727 | 36900 ft | 495 kts | 30° |
| 2026-04-26 10:02 | 9.06994 | 49.57336 | 36900 ft | 495 kts | 30° |
| 2026-04-26 10:02 | 9.12849 | 49.60921 | 36902 ft | 495 kts | 30° |
| 2026-04-26 10:03 | 9.18746 | 49.64533 | 36900 ft | 495 kts | 30° |
| 2026-04-26 10:03 | 9.24644 | 49.68147 | 36906 ft | 495 kts | 30° |
| 2026-04-26 10:04 | 9.30533 | 49.71760 | 36902 ft | 495 kts | 30° |
| 2026-04-26 10:04 | 9.36382 | 49.75348 | 36910 ft | 495 kts | 31° |
| 2026-04-26 10:05 | 9.42264 | 49.78959 | 36910 ft | 495 kts | 31° |
| 2026-04-26 10:05 | 9.48150 | 49.82572 | 36904 ft | 495 kts | 31° |
| 2026-04-26 10:06 | 9.54029 | 49.86184 | 36908 ft | 495 kts | 31° |
| 2026-04-26 10:06 | 9.59914 | 49.89800 | 36903 ft | 494 kts | 30° |
| 2026-04-26 10:07 | 9.65753 | 49.93390 | 36908 ft | 494 kts | 31° |
| 2026-04-26 10:07 | 9.71630 | 49.97005 | 36911 ft | 494 kts | 31° |
| 2026-04-26 10:08 | 9.77504 | 50.00618 | 36911 ft | 494 kts | 31° |
| 2026-04-26 10:08 | 9.83374 | 50.04232 | 36911 ft | 494 kts | 31° |
| 2026-04-26 10:09 | 9.89203 | 50.07822 | 36908 ft | 494 kts | 31° |
| 2026-04-26 10:09 | 9.95073 | 50.11438 | 36909 ft | 493 kts | 31° |
| 2026-04-26 10:10 | 10.00944 | 50.15056 | 36906 ft | 494 kts | 31° |
| 2026-04-26 10:10 | 10.06810 | 50.18674 | 36906 ft | 494 kts | 31° |
| 2026-04-26 10:11 | 10.12675 | 50.22291 | 36898 ft | 493 kts | 31° |
| 2026-04-26 10:11 | 10.18496 | 50.25884 | 36899 ft | 493 kts | 31° |
| 2026-04-26 10:12 | 10.24360 | 50.29504 | 36897 ft | 493 kts | 31° |
| 2026-04-26 10:12 | 10.30226 | 50.33126 | 36897 ft | 493 kts | 31° |
| 2026-04-26 10:13 | 10.36083 | 50.36746 | 36896 ft | 493 kts | 31° |
| 2026-04-26 10:13 | 10.41907 | 50.40346 | 36897 ft | 493 kts | 31° |
| 2026-04-26 10:14 | 10.47764 | 50.43969 | 36897 ft | 492 kts | 31° |
| 2026-04-26 10:14 | 10.53621 | 50.47593 | 36905 ft | 493 kts | 31° |
| 2026-04-26 10:15 | 10.59475 | 50.51217 | 36902 ft | 493 kts | 31° |
| 2026-04-26 10:15 | 10.65331 | 50.54843 | 36904 ft | 493 kts | 31° |
| 2026-04-26 10:16 | 10.71149 | 50.58448 | 36904 ft | 493 kts | 31° |
| 2026-04-26 10:16 | 10.77004 | 50.62078 | 36904 ft | 493 kts | 31° |
| 2026-04-26 10:17 | 10.82860 | 50.65709 | 36905 ft | 493 kts | 31° |
| 2026-04-26 10:17 | 10.88715 | 50.69342 | 36911 ft | 493 kts | 31° |
| 2026-04-26 10:18 | 10.94531 | 50.72953 | 36910 ft | 493 kts | 31° |
| 2026-04-26 10:18 | 11.00386 | 50.76588 | 36916 ft | 493 kts | 31° |
| 2026-04-26 10:19 | 11.06246 | 50.80229 | 36916 ft | 493 kts | 31° |
| 2026-04-26 10:19 | 11.12097 | 50.83866 | 36920 ft | 493 kts | 31° |
| 2026-04-26 10:20 | 11.17951 | 50.87507 | 36919 ft | 493 kts | 31° |
| 2026-04-26 10:20 | 11.23762 | 50.91124 | 36916 ft | 492 kts | 31° |
| 2026-04-26 10:21 | 11.29614 | 50.94766 | 36919 ft | 493 kts | 31° |
| 2026-04-26 10:21 | 11.35459 | 50.98407 | 36915 ft | 492 kts | 31° |
| 2026-04-26 10:22 | 11.41304 | 51.02048 | 36949 ft | 492 kts | 31° |
| 2026-04-26 10:22 | 11.44177 | 51.03835 | 38034 ft | 472 kts | 31° |
| 2026-04-26 10:22 | 11.46946 | 51.05557 | 38797 ft | 462 kts | 31° |
| 2026-04-26 10:23 | 11.52466 | 51.08992 | 38902 ft | 477 kts | 31° |
| 2026-04-26 10:23 | 11.58222 | 51.12577 | 38909 ft | 491 kts | 31° |
| 2026-04-26 10:24 | 11.64050 | 51.16208 | 38910 ft | 492 kts | 31° |
| 2026-04-26 10:24 | 11.69865 | 51.19832 | 38916 ft | 493 kts | 31° |
| 2026-04-26 10:25 | 11.75719 | 51.23483 | 38905 ft | 493 kts | 31° |
| 2026-04-26 10:25 | 11.81575 | 51.27136 | 38908 ft | 493 kts | 31° |
| 2026-04-26 10:26 | 11.87431 | 51.30793 | 38912 ft | 493 kts | 31° |
| 2026-04-26 10:26 | 11.93281 | 51.34446 | 38905 ft | 493 kts | 31° |
| 2026-04-26 10:27 | 11.99097 | 51.38081 | 38905 ft | 493 kts | 31° |
| 2026-04-26 10:27 | 12.04945 | 51.41737 | 38903 ft | 493 kts | 31° |
| 2026-04-26 10:28 | 12.10796 | 51.45391 | 38903 ft | 493 kts | 31° |
| 2026-04-26 10:28 | 12.16646 | 51.49050 | 38904 ft | 493 kts | 31° |
| 2026-04-26 10:29 | 12.22494 | 51.52709 | 38903 ft | 493 kts | 31° |
| 2026-04-26 10:29 | 12.28311 | 51.56349 | 38903 ft | 493 kts | 31° |
| 2026-04-26 10:30 | 12.34157 | 51.60011 | 38902 ft | 493 kts | 31° |
| 2026-04-26 10:30 | 12.40007 | 51.63677 | 38905 ft | 493 kts | 31° |
| 2026-04-26 10:31 | 12.45853 | 51.67342 | 38909 ft | 493 kts | 31° |
| 2026-04-26 10:31 | 12.51706 | 51.71013 | 38912 ft | 493 kts | 31° |
| 2026-04-26 10:32 | 12.57509 | 51.74655 | 38909 ft | 493 kts | 31° |
| 2026-04-26 10:32 | 12.63358 | 51.78328 | 38911 ft | 493 kts | 31° |
| 2026-04-26 10:33 | 12.69208 | 51.82004 | 38910 ft | 493 kts | 31° |
| 2026-04-26 10:33 | 12.75049 | 51.85676 | 38912 ft | 493 kts | 31° |
| 2026-04-26 10:34 | 12.80896 | 51.89353 | 38916 ft | 493 kts | 31° |
| 2026-04-26 10:34 | 12.86697 | 51.93004 | 38918 ft | 493 kts | 31° |
| 2026-04-26 10:35 | 12.92539 | 51.96682 | 38916 ft | 493 kts | 31° |
| 2026-04-26 10:35 | 12.98382 | 52.00364 | 38916 ft | 493 kts | 31° |
| 2026-04-26 10:36 | 13.04221 | 52.04045 | 38914 ft | 493 kts | 31° |
| 2026-04-26 10:36 | 13.10064 | 52.07730 | 38914 ft | 493 kts | 31° |
| 2026-04-26 10:37 | 13.15900 | 52.11413 | 38913 ft | 493 kts | 31° |
| 2026-04-26 10:37 | 13.21736 | 52.15098 | 38913 ft | 493 kts | 31° |
| 2026-04-26 10:38 | 13.27533 | 52.18760 | 38919 ft | 493 kts | 31° |
| 2026-04-26 10:38 | 13.33367 | 52.22449 | 38919 ft | 493 kts | 31° |
| 2026-04-26 10:39 | 13.39213 | 52.26146 | 38919 ft | 493 kts | 31° |
| 2026-04-26 10:39 | 13.45045 | 52.29849 | 38917 ft | 493 kts | 31° |
| 2026-04-26 10:40 | 13.50870 | 52.33548 | 38916 ft | 492 kts | 31° |
| 2026-04-26 10:40 | 13.56659 | 52.37227 | 38919 ft | 492 kts | 31° |
| 2026-04-26 10:41 | 13.62487 | 52.40933 | 38911 ft | 493 kts | 31° |
| 2026-04-26 10:41 | 13.68317 | 52.44643 | 38916 ft | 493 kts | 31° |
| 2026-04-26 10:42 | 13.74144 | 52.48343 | 38922 ft | 492 kts | 31° |
| 2026-04-26 10:42 | 13.79932 | 52.52038 | 38924 ft | 492 kts | 31° |
| 2026-04-26 10:43 | 13.85749 | 52.55745 | 38920 ft | 491 kts | 31° |
| 2026-04-26 10:43 | 13.91561 | 52.59453 | 38915 ft | 492 kts | 31° |
| 2026-04-26 10:44 | 13.97374 | 52.63162 | 38916 ft | 491 kts | 31° |
| 2026-04-26 10:44 | 14.03187 | 52.66874 | 38916 ft | 492 kts | 31° |
| 2026-04-26 10:45 | 14.08962 | 52.70564 | 38919 ft | 492 kts | 31° |
| 2026-04-26 10:45 | 14.14776 | 52.74281 | 38919 ft | 492 kts | 31° |
| 2026-04-26 10:46 | 14.20586 | 52.77998 | 38925 ft | 491 kts | 31° |
| 2026-04-26 10:46 | 14.26385 | 52.81709 | 38927 ft | 491 kts | 31° |
| 2026-04-26 10:47 | 14.32150 | 52.85401 | 38920 ft | 491 kts | 31° |
| 2026-04-26 10:47 | 14.37960 | 52.89124 | 38919 ft | 492 kts | 31° |
| 2026-04-26 10:48 | 14.43765 | 52.92850 | 38916 ft | 492 kts | 31° |
| 2026-04-26 10:48 | 14.49578 | 52.96578 | 38911 ft | 492 kts | 31° |
| 2026-04-26 10:49 | 14.55384 | 53.00304 | 38909 ft | 492 kts | 31° |
| 2026-04-26 10:49 | 14.61146 | 53.04007 | 38914 ft | 491 kts | 31° |
| 2026-04-26 10:50 | 14.65973 | 53.07109 | 38912 ft | 491 kts | 31° |
| 2026-04-26 10:50 | 14.72775 | 53.11437 | 38913 ft | 491 kts | 30° |
| 2026-04-26 10:51 | 14.81495 | 53.17001 | 38914 ft | 491 kts | 30° |
| 2026-04-26 10:52 | 14.87276 | 53.20681 | 38920 ft | 491 kts | 30° |
| 2026-04-26 10:52 | 14.93090 | 53.24396 | 38919 ft | 491 kts | 30° |
| 2026-04-26 10:53 | 14.98911 | 53.28109 | 38918 ft | 492 kts | 30° |
| 2026-04-26 10:53 | 15.04731 | 53.31831 | 38919 ft | 492 kts | 30° |
| 2026-04-26 10:54 | 15.13434 | 53.37396 | 38917 ft | 492 kts | 30° |
| 2026-04-26 10:54 | 15.19256 | 53.41123 | 38917 ft | 492 kts | 30° |
| 2026-04-26 10:55 | 15.25077 | 53.44850 | 38919 ft | 492 kts | 30° |
| 2026-04-26 10:55 | 15.29917 | 53.47952 | 38921 ft | 492 kts | 30° |
| 2026-04-26 10:56 | 15.36720 | 53.52315 | 38917 ft | 492 kts | 30° |
| 2026-04-26 10:56 | 15.42506 | 53.56028 | 38918 ft | 492 kts | 30° |
| 2026-04-26 10:57 | 15.48286 | 53.59828 | 38920 ft | 493 kts | 32° |
| 2026-04-26 10:57 | 15.54026 | 53.63695 | 38919 ft | 492 kts | 31° |
| 2026-04-26 10:58 | 15.59805 | 53.67515 | 38917 ft | 492 kts | 31° |
| 2026-04-26 10:58 | 15.65561 | 53.71377 | 38916 ft | 493 kts | 31° |
| 2026-04-26 10:59 | 15.71282 | 53.75181 | 38916 ft | 492 kts | 31° |
| 2026-04-26 10:59 | 15.77047 | 53.79041 | 38917 ft | 491 kts | 31° |
| 2026-04-26 11:00 | 15.82795 | 53.82877 | 38918 ft | 491 kts | 31° |
| 2026-04-26 11:00 | 15.88542 | 53.86725 | 38917 ft | 491 kts | 31° |
| 2026-04-26 11:01 | 15.94281 | 53.90499 | 38913 ft | 492 kts | 30° |
| 2026-04-26 11:01 | 16.00060 | 53.94315 | 38911 ft | 493 kts | 31° |
| 2026-04-26 11:02 | 16.05845 | 53.98135 | 38914 ft | 492 kts | 31° |
| 2026-04-26 11:02 | 16.11625 | 54.01953 | 38914 ft | 491 kts | 31° |
| 2026-04-26 11:03 | 16.17396 | 54.05771 | 38905 ft | 492 kts | 31° |
| 2026-04-26 11:03 | 16.23122 | 54.09563 | 38901 ft | 491 kts | 31° |
| 2026-04-26 11:04 | 16.28896 | 54.13380 | 38894 ft | 492 kts | 30° |
| 2026-04-26 11:04 | 16.34674 | 54.17211 | 38893 ft | 492 kts | 30° |
| 2026-04-26 11:05 | 16.40455 | 54.21043 | 38894 ft | 492 kts | 30° |
| 2026-04-26 11:05 | 16.46230 | 54.24875 | 38898 ft | 492 kts | 30° |
| 2026-04-26 11:06 | 16.51025 | 54.28056 | 38903 ft | 491 kts | 30° |
| 2026-04-26 11:06 | 16.57719 | 54.32508 | 38900 ft | 491 kts | 30° |
| 2026-04-26 11:07 | 16.63494 | 54.36346 | 38896 ft | 492 kts | 30° |
| 2026-04-26 11:07 | 16.69264 | 54.40188 | 38894 ft | 492 kts | 30° |
| 2026-04-26 11:08 | 16.75036 | 54.44031 | 38898 ft | 492 kts | 30° |
| 2026-04-26 11:08 | 16.80770 | 54.47853 | 38902 ft | 492 kts | 30° |
| 2026-04-26 11:09 | 16.81258 | 54.48178 | 38905 ft | 492 kts | 30° |
| 2026-04-26 11:09 | 16.87024 | 54.52031 | 38907 ft | 491 kts | 30° |
| 2026-04-26 11:10 | 16.92782 | 54.55864 | 38912 ft | 491 kts | 30° |
| 2026-04-26 11:10 | 16.98519 | 54.59696 | 38914 ft | 493 kts | 30° |
| 2026-04-26 11:11 | 17.04289 | 54.63549 | 38922 ft | 492 kts | 30° |
| 2026-04-26 11:11 | 17.10061 | 54.67405 | 38926 ft | 492 kts | 30° |
| 2026-04-26 11:12 | 17.15833 | 54.71266 | 38930 ft | 492 kts | 30° |
| 2026-04-26 11:12 | 17.21602 | 54.75133 | 38925 ft | 492 kts | 30° |
| 2026-04-26 11:13 | 17.27312 | 54.78978 | 38928 ft | 492 kts | 32° |
| 2026-04-26 11:13 | 17.32881 | 54.83173 | 38922 ft | 494 kts | 33° |
| 2026-04-26 11:14 | 17.38462 | 54.87359 | 38925 ft | 493 kts | 33° |
| 2026-04-26 11:14 | 17.43094 | 54.90842 | 38921 ft | 493 kts | 33° |
| 2026-04-26 11:15 | 17.49606 | 54.95750 | 38906 ft | 493 kts | 32° |
| 2026-04-26 11:15 | 17.55140 | 54.99917 | 38909 ft | 493 kts | 33° |
| 2026-04-26 11:16 | 17.60708 | 55.04118 | 38897 ft | 493 kts | 32° |
| 2026-04-26 11:16 | 17.66284 | 55.08324 | 38898 ft | 494 kts | 33° |
| 2026-04-26 11:17 | 17.71850 | 55.12529 | 38890 ft | 494 kts | 33° |
| 2026-04-26 11:17 | 17.77389 | 55.16717 | 38897 ft | 494 kts | 33° |
| 2026-04-26 11:18 | 17.82982 | 55.20947 | 38894 ft | 494 kts | 33° |
| 2026-04-26 11:18 | 17.88525 | 55.25145 | 38886 ft | 494 kts | 33° |
| 2026-04-26 11:19 | 17.94083 | 55.29357 | 38889 ft | 493 kts | 32° |
| 2026-04-26 11:19 | 17.99648 | 55.33577 | 38879 ft | 493 kts | 32° |
| 2026-04-26 11:20 | 18.04271 | 55.37087 | 38881 ft | 493 kts | 32° |
| 2026-04-26 11:20 | 18.10799 | 55.41885 | 38876 ft | 492 kts | 30° |
| 2026-04-26 11:21 | 18.16544 | 55.45786 | 38868 ft | 492 kts | 30° |
| 2026-04-26 11:21 | 18.22270 | 55.49724 | 38874 ft | 492 kts | 30° |
| 2026-04-26 11:22 | 18.28009 | 55.53644 | 38873 ft | 492 kts | 30° |
| 2026-04-26 11:22 | 18.33734 | 55.57576 | 38872 ft | 491 kts | 30° |
| 2026-04-26 11:23 | 18.39428 | 55.61478 | 38869 ft | 491 kts | 30° |
| 2026-04-26 11:23 | 18.45150 | 55.65410 | 38869 ft | 491 kts | 30° |
| 2026-04-26 11:24 | 18.50878 | 55.69345 | 38873 ft | 492 kts | 30° |
| 2026-04-26 11:24 | 18.56607 | 55.73286 | 38864 ft | 492 kts | 30° |
| 2026-04-26 11:25 | 18.62296 | 55.77201 | 38868 ft | 492 kts | 30° |
| 2026-04-26 11:25 | 18.68015 | 55.81141 | 38857 ft | 490 kts | 30° |
| 2026-04-26 11:26 | 18.73723 | 55.85076 | 38859 ft | 490 kts | 30° |
| 2026-04-26 11:26 | 18.79432 | 55.89016 | 38855 ft | 490 kts | 30° |
| 2026-04-26 11:27 | 18.85140 | 55.92957 | 38851 ft | 490 kts | 30° |
| 2026-04-26 11:27 | 18.90813 | 55.96878 | 38851 ft | 490 kts | 30° |
| 2026-04-26 11:28 | 18.96646 | 56.00578 | 38833 ft | 487 kts | 21° |
| 2026-04-26 11:28 | 19.03048 | 56.02763 | 38841 ft | 482 kts | 11° |
| 2026-04-26 11:29 | 19.09554 | 56.04508 | 38853 ft | 483 kts | 12° |
| 2026-04-26 11:29 | 19.16020 | 56.06241 | 38849 ft | 482 kts | 12° |
| 2026-04-26 11:30 | 19.21471 | 56.07701 | 38851 ft | 482 kts | 12° |
| 2026-04-26 11:30 | 19.29051 | 56.09739 | 38848 ft | 484 kts | 11° |
| 2026-04-26 11:31 | 19.35573 | 56.11491 | 38846 ft | 484 kts | 12° |
| 2026-04-26 11:31 | 19.42100 | 56.13246 | 38843 ft | 484 kts | 11° |
| 2026-04-26 11:32 | 19.48625 | 56.15002 | 38844 ft | 484 kts | 12° |
| 2026-04-26 11:32 | 19.55110 | 56.16749 | 38849 ft | 485 kts | 11° |
| 2026-04-26 11:33 | 19.61646 | 56.18512 | 38850 ft | 485 kts | 11° |
| 2026-04-26 11:33 | 19.68182 | 56.20275 | 38850 ft | 485 kts | 11° |
| 2026-04-26 11:34 | 19.74725 | 56.22042 | 38847 ft | 485 kts | 11° |
| 2026-04-26 11:34 | 19.81216 | 56.23797 | 38844 ft | 485 kts | 11° |
| 2026-04-26 11:35 | 19.87770 | 56.25569 | 38848 ft | 486 kts | 11° |
| 2026-04-26 11:35 | 19.93217 | 56.27044 | 38848 ft | 486 kts | 11° |
| 2026-04-26 11:36 | 19.97637 | 56.27939 | 39002 ft | 479 kts | 3° |
| 2026-04-26 11:36 | 20.00902 | 56.28091 | 39729 ft | 464 kts | 358° |
| 2026-04-26 11:36 | 20.04099 | 56.28095 | 39832 ft | 469 kts | 358° |
| 2026-04-26 11:36 | 20.07384 | 56.28101 | 39833 ft | 477 kts | 358° |
| 2026-04-26 11:37 | 20.14051 | 56.28123 | 39835 ft | 481 kts | 358° |
| 2026-04-26 11:37 | 20.20749 | 56.28136 | 39835 ft | 481 kts | 358° |
| 2026-04-26 11:38 | 20.27454 | 56.28154 | 39833 ft | 482 kts | 358° |
| 2026-04-26 11:38 | 20.34116 | 56.28170 | 39827 ft | 482 kts | 358° |
| 2026-04-26 11:39 | 20.40822 | 56.28187 | 39831 ft | 482 kts | 358° |
| 2026-04-26 11:39 | 20.47533 | 56.28203 | 39824 ft | 482 kts | 358° |
| 2026-04-26 11:40 | 20.54243 | 56.28219 | 39825 ft | 482 kts | 358° |
| 2026-04-26 11:40 | 20.60883 | 56.27459 | 39822 ft | 480 kts | 350° |
| 2026-04-26 11:42 | 20.87332 | 56.23632 | 39828 ft | 480 kts | 350° |
| 2026-04-26 11:43 | 20.92834 | 56.22830 | 39834 ft | 480 kts | 350° |
| 2026-04-26 11:43 | 21.00528 | 56.21715 | 39827 ft | 480 kts | 350° |
| 2026-04-26 11:44 | 21.07149 | 56.20751 | 39823 ft | 480 kts | 350° |
| 2026-04-26 11:44 | 21.13781 | 56.19786 | 39828 ft | 480 kts | 350° |
| 2026-04-26 11:45 | 21.19284 | 56.18984 | 39828 ft | 480 kts | 350° |
| 2026-04-26 11:45 | 21.26987 | 56.17861 | 39830 ft | 481 kts | 350° |
| 2026-04-26 11:46 | 21.33616 | 56.16890 | 39830 ft | 481 kts | 350° |
| 2026-04-26 11:46 | 21.39127 | 56.16081 | 39831 ft | 481 kts | 350° |
| 2026-04-26 11:47 | 21.45757 | 56.15109 | 39829 ft | 481 kts | 350° |
| 2026-04-26 11:47 | 21.52386 | 56.14134 | 39831 ft | 481 kts | 350° |
| 2026-04-26 11:48 | 21.60082 | 56.13003 | 39830 ft | 481 kts | 350° |
| 2026-04-26 11:48 | 21.65638 | 56.12185 | 39835 ft | 481 kts | 350° |
| 2026-04-26 11:49 | 21.72223 | 56.11215 | 39837 ft | 481 kts | 350° |
| 2026-04-26 11:49 | 21.78854 | 56.10236 | 39833 ft | 481 kts | 349° |
| 2026-04-26 11:50 | 21.85485 | 56.09258 | 39833 ft | 481 kts | 349° |
| 2026-04-26 11:50 | 21.92118 | 56.08278 | 39835 ft | 481 kts | 349° |
| 2026-04-26 11:51 | 21.98751 | 56.07297 | 39831 ft | 481 kts | 349° |
| 2026-04-26 11:51 | 22.05338 | 56.06322 | 39827 ft | 481 kts | 349° |
| 2026-04-26 11:52 | 22.11966 | 56.05342 | 39824 ft | 481 kts | 349° |
| 2026-04-26 11:52 | 22.18601 | 56.04359 | 39828 ft | 481 kts | 349° |
| 2026-04-26 11:53 | 22.25190 | 56.03382 | 39828 ft | 481 kts | 349° |
| 2026-04-26 11:54 | 22.35135 | 56.01906 | 39834 ft | 481 kts | 349° |
| 2026-04-26 11:54 | 22.41761 | 56.00924 | 39834 ft | 481 kts | 349° |
| 2026-04-26 11:55 | 22.48395 | 55.99948 | 39839 ft | 481 kts | 349° |
| 2026-04-26 11:55 | 22.51660 | 55.99467 | 39637 ft | 463 kts | 349° |
| 2026-04-26 11:55 | 22.54787 | 55.99008 | 39257 ft | 444 kts | 348° |
| 2026-04-26 11:55 | 22.57742 | 55.98571 | 38889 ft | 427 kts | 348° |
| 2026-04-26 11:56 | 22.60647 | 55.98138 | 38527 ft | 416 kts | 348° |
| 2026-04-26 11:56 | 22.63503 | 55.97713 | 38134 ft | 414 kts | 348° |
| 2026-04-26 11:56 | 22.66372 | 55.97286 | 37774 ft | 419 kts | 348° |
| 2026-04-26 11:56 | 22.69268 | 55.96858 | 37410 ft | 423 kts | 348° |
| 2026-04-26 11:57 | 22.72202 | 55.96425 | 37035 ft | 425 kts | 348° |
| 2026-04-26 11:57 | 22.75142 | 55.95989 | 36659 ft | 427 kts | 348° |
| 2026-04-26 11:57 | 22.78085 | 55.95552 | 36297 ft | 428 kts | 348° |
| 2026-04-26 11:57 | 22.81039 | 55.95114 | 35910 ft | 429 kts | 348° |
| 2026-04-26 11:58 | 22.83997 | 55.94673 | 35532 ft | 430 kts | 348° |
| 2026-04-26 11:58 | 22.86923 | 55.94234 | 35157 ft | 430 kts | 348° |
| 2026-04-26 11:58 | 22.89892 | 55.93789 | 34786 ft | 431 kts | 348° |
| 2026-04-26 11:58 | 22.92869 | 55.93345 | 34405 ft | 432 kts | 348° |
| 2026-04-26 11:59 | 22.95852 | 55.92899 | 34025 ft | 433 kts | 348° |
| 2026-04-26 11:59 | 22.98837 | 55.92451 | 33621 ft | 434 kts | 348° |
| 2026-04-26 11:59 | 23.01848 | 55.91999 | 33231 ft | 439 kts | 348° |
| 2026-04-26 11:59 | 23.04886 | 55.91543 | 32852 ft | 444 kts | 348° |
| 2026-04-26 12:00 | 23.07967 | 55.91079 | 32451 ft | 448 kts | 348° |
| 2026-04-26 12:00 | 23.11065 | 55.90612 | 32067 ft | 453 kts | 348° |
| 2026-04-26 12:00 | 23.14162 | 55.90145 | 31672 ft | 457 kts | 348° |
| 2026-04-26 12:00 | 23.17327 | 55.89669 | 31272 ft | 461 kts | 348° |
| 2026-04-26 12:01 | 23.20525 | 55.89186 | 30873 ft | 466 kts | 348° |
| 2026-04-26 12:01 | 23.23757 | 55.88698 | 30454 ft | 473 kts | 349° |
| 2026-04-26 12:01 | 23.27018 | 55.88206 | 30041 ft | 473 kts | 349° |
| 2026-04-26 12:01 | 23.30276 | 55.87716 | 29604 ft | 472 kts | 348° |
| 2026-04-26 12:02 | 23.33510 | 55.87228 | 29177 ft | 468 kts | 348° |
| 2026-04-26 12:02 | 23.36723 | 55.86740 | 28770 ft | 465 kts | 348° |
| 2026-04-26 12:02 | 23.39922 | 55.86256 | 28370 ft | 463 kts | 348° |
| 2026-04-26 12:02 | 23.43061 | 55.85782 | 27972 ft | 460 kts | 348° |
| 2026-04-26 12:03 | 23.46226 | 55.85303 | 27570 ft | 458 kts | 348° |
| 2026-04-26 12:03 | 23.49375 | 55.84825 | 27171 ft | 456 kts | 348° |
| 2026-04-26 12:03 | 23.52509 | 55.84350 | 26778 ft | 454 kts | 348° |
| 2026-04-26 12:03 | 23.55628 | 55.83877 | 26392 ft | 452 kts | 348° |
| 2026-04-26 12:04 | 23.58734 | 55.83405 | 25992 ft | 449 kts | 348° |
| 2026-04-26 12:04 | 23.61825 | 55.82934 | 25602 ft | 448 kts | 348° |
| 2026-04-26 12:04 | 23.64903 | 55.82466 | 25212 ft | 446 kts | 348° |
| 2026-04-26 12:04 | 23.67972 | 55.81998 | 24823 ft | 444 kts | 348° |
| 2026-04-26 12:05 | 23.71007 | 55.81751 | 24403 ft | 447 kts | 359° |
| 2026-04-26 12:05 | 23.74103 | 55.82069 | 24055 ft | 447 kts | 3° |
| 2026-04-26 12:05 | 23.77193 | 55.82418 | 23674 ft | 445 kts | 2° |
| 2026-04-26 12:05 | 23.80265 | 55.82732 | 23257 ft | 443 kts | 2° |
| 2026-04-26 12:06 | 23.83319 | 55.83034 | 22861 ft | 440 kts | 2° |
| 2026-04-26 12:06 | 23.86358 | 55.83353 | 22475 ft | 437 kts | 2° |
| 2026-04-26 12:06 | 23.89368 | 55.83678 | 22090 ft | 434 kts | 2° |
| 2026-04-26 12:06 | 23.92362 | 55.83992 | 21710 ft | 430 kts | 2° |
| 2026-04-26 12:07 | 23.95329 | 55.84296 | 21334 ft | 428 kts | 2° |
| 2026-04-26 12:07 | 23.98282 | 55.84603 | 20961 ft | 424 kts | 2° |
| 2026-04-26 12:07 | 24.01166 | 55.84909 | 20595 ft | 421 kts | 2° |
| 2026-04-26 12:07 | 24.04074 | 55.85215 | 20212 ft | 419 kts | 2° |
| 2026-04-26 12:08 | 24.06967 | 55.85517 | 19859 ft | 415 kts | 2° |
| 2026-04-26 12:08 | 24.09832 | 55.85815 | 19497 ft | 412 kts | 2° |
| 2026-04-26 12:08 | 24.12679 | 55.86115 | 19135 ft | 409 kts | 2° |
| 2026-04-26 12:08 | 24.15505 | 55.86412 | 18777 ft | 406 kts | 3° |
| 2026-04-26 12:09 | 24.18299 | 55.86705 | 18422 ft | 403 kts | 2° |
| 2026-04-26 12:09 | 24.21085 | 55.86997 | 18054 ft | 400 kts | 2° |
| 2026-04-26 12:09 | 24.23816 | 55.87285 | 17690 ft | 399 kts | 1° |
| 2026-04-26 12:09 | 24.26616 | 55.87578 | 17330 ft | 399 kts | 2° |
| 2026-04-26 12:10 | 24.29374 | 55.87870 | 16982 ft | 397 kts | 3° |
| 2026-04-26 12:10 | 24.32085 | 55.88354 | 16911 ft | 390 kts | 6° |
| 2026-04-26 12:10 | 24.34747 | 55.88835 | 16952 ft | 395 kts | 7° |
| 2026-04-26 12:10 | 24.37365 | 55.89735 | 16913 ft | 397 kts | 25° |
| 2026-04-26 12:11 | 24.39625 | 55.91494 | 16950 ft | 402 kts | 39° |
| 2026-04-26 12:11 | 24.41714 | 55.93557 | 16967 ft | 403 kts | 40° |
| 2026-04-26 12:11 | 24.43760 | 55.95644 | 16967 ft | 400 kts | 40° |
| 2026-04-26 12:11 | 24.45830 | 55.97724 | 16968 ft | 406 kts | 40° |
| 2026-04-26 12:12 | 24.47918 | 55.99784 | 16963 ft | 401 kts | 40° |
| 2026-04-26 12:12 | 24.49991 | 56.01841 | 16955 ft | 404 kts | 40° |
| 2026-04-26 12:12 | 24.52064 | 56.03922 | 16958 ft | 404 kts | 40° |
| 2026-04-26 12:12 | 24.53435 | 56.05301 | 16956 ft | 401 kts | 41° |
| 2026-04-26 12:13 | 24.56192 | 56.08066 | 16952 ft | 404 kts | 40° |
| 2026-04-26 12:13 | 24.58232 | 56.10112 | 16937 ft | 401 kts | 40° |
| 2026-04-26 12:13 | 24.60575 | 56.11689 | 16831 ft | 392 kts | 18° |
| 2026-04-26 12:13 | 24.63249 | 56.12079 | 16842 ft | 387 kts | 354° |
| 2026-04-26 12:14 | 24.65873 | 56.11531 | 16849 ft | 384 kts | 338° |
| 2026-04-26 12:14 | 24.68205 | 56.10188 | 16864 ft | 378 kts | 322° |
| 2026-04-26 12:14 | 24.70123 | 56.08225 | 16891 ft | 376 kts | 311° |
| 2026-04-26 12:14 | 24.71792 | 56.06252 | 15897 ft | 325 kts | 311° |
| 2026-04-26 12:15 | 24.73383 | 56.04445 | 13726 ft | 350 kts | 313° |
| 2026-04-26 12:15 | 24.75167 | 56.02532 | 12270 ft | 361 kts | 314° |
| 2026-04-26 12:15 | 24.76986 | 56.00616 | 11972 ft | 358 kts | 314° |
| 2026-04-26 12:15 | 24.78740 | 55.98642 | 11521 ft | 358 kts | 311° |
| 2026-04-26 12:16 | 24.80365 | 55.96735 | 10999 ft | 329 kts | 311° |
| 2026-04-26 12:16 | 24.81945 | 55.94980 | 10518 ft | 314 kts | 313° |
| 2026-04-26 12:16 | 24.83468 | 55.93333 | 10059 ft | 300 kts | 313° |
| 2026-04-26 12:16 | 24.84906 | 55.91743 | 9617 ft | 288 kts | 312° |
| 2026-04-26 12:17 | 24.86288 | 55.90193 | 9176 ft | 281 kts | 312° |
| 2026-04-26 12:17 | 24.87648 | 55.88680 | 8760 ft | 274 kts | 312° |
| 2026-04-26 12:17 | 24.88965 | 55.87219 | 8358 ft | 272 kts | 313° |
| 2026-04-26 12:17 | 24.90304 | 55.85732 | 7956 ft | 274 kts | 313° |
| 2026-04-26 12:18 | 24.91653 | 55.84232 | 7546 ft | 275 kts | 313° |
| 2026-04-26 12:18 | 24.92975 | 55.82762 | 7132 ft | 267 kts | 313° |
| 2026-04-26 12:18 | 24.94271 | 55.81321 | 6744 ft | 262 kts | 314° |
| 2026-04-26 12:18 | 24.95550 | 55.79900 | 6356 ft | 260 kts | 314° |
| 2026-04-26 12:19 | 24.96829 | 55.78477 | 5957 ft | 263 kts | 314° |
| 2026-04-26 12:19 | 24.98119 | 55.77039 | 5554 ft | 263 kts | 314° |
| 2026-04-26 12:19 | 24.99385 | 55.75629 | 5166 ft | 253 kts | 314° |
| 2026-04-26 12:19 | 25.00606 | 55.74270 | 4793 ft | 245 kts | 314° |
| 2026-04-26 12:20 | 25.01784 | 55.72959 | 4420 ft | 238 kts | 314° |
| 2026-04-26 12:20 | 25.02914 | 55.71700 | 4068 ft | 223 kts | 314° |
| 2026-04-26 12:20 | 25.03960 | 55.70525 | 3848 ft | 203 kts | 314° |
| 2026-04-26 12:20 | 25.04880 | 55.69486 | 3852 ft | 185 kts | 314° |
| 2026-04-26 12:21 | 25.05746 | 55.68504 | 3843 ft | 177 kts | 314° |
| 2026-04-26 12:21 | 25.06611 | 55.67520 | 3856 ft | 180 kts | 314° |
| 2026-04-26 12:21 | 25.07486 | 55.66520 | 3852 ft | 183 kts | 314° |
| 2026-04-26 12:21 | 25.08387 | 55.65497 | 3866 ft | 186 kts | 314° |
| 2026-04-26 12:22 | 25.09301 | 55.64476 | 3864 ft | 189 kts | 314° |
| 2026-04-26 12:22 | 25.10216 | 55.63457 | 3867 ft | 186 kts | 314° |
| 2026-04-26 12:22 | 25.11123 | 55.62426 | 3867 ft | 186 kts | 312° |
| 2026-04-26 12:22 | 25.11691 | 55.61147 | 3856 ft | 187 kts | 292° |
| 2026-04-26 12:23 | 25.12218 | 55.59833 | 3853 ft | 186 kts | 302° |
| 2026-04-26 12:23 | 25.12954 | 55.58669 | 3804 ft | 189 kts | 304° |
| 2026-04-26 12:23 | 25.13616 | 55.57509 | 3598 ft | 169 kts | 302° |
| 2026-04-26 12:23 | 25.14243 | 55.56384 | 3381 ft | 169 kts | 302° |
| 2026-04-26 12:24 | 25.14844 | 55.55302 | 3171 ft | 169 kts | 303° |
| 2026-04-26 12:24 | 25.15457 | 55.54198 | 2962 ft | 168 kts | 303° |
| 2026-04-26 12:24 | 25.16075 | 55.53084 | 2755 ft | 173 kts | 304° |
| 2026-04-26 12:25 | 25.17310 | 55.50853 | 2310 ft | 172 kts | 304° |
| 2026-04-26 12:25 | 25.17934 | 55.49717 | 2093 ft | 173 kts | 303° |
| 2026-04-26 12:25 | 25.18554 | 55.48594 | 1880 ft | 168 kts | 303° |
| 2026-04-26 12:25 | 25.19172 | 55.47475 | 1659 ft | 172 kts | 303° |
| 2026-04-26 12:26 | 25.19794 | 55.46354 | 1443 ft | 172 kts | 302° |
| 2026-04-26 12:26 | 25.20405 | 55.45247 | 1224 ft | 159 kts | 302° |
| 2026-04-26 12:26 | 25.20929 | 55.44297 | 1025 ft | 134 kts | 301° |
| 2026-04-26 12:26 | 25.21392 | 55.43459 | 879 ft | 123 kts | 301° |
| 2026-04-26 12:27 | 25.21825 | 55.42677 | 738 ft | 115 kts | 302° |
| 2026-04-26 12:27 | 25.22235 | 55.41932 | 607 ft | 112 kts | 302° |
| 2026-04-26 12:27 | 25.22629 | 55.41213 | 459 ft | 110 kts | 302° |
| 2026-04-26 12:27 | 25.23035 | 55.40490 | 331 ft | 111 kts | 303° |
| 2026-04-26 12:28 | 25.23445 | 55.39746 | 148 ft | 116 kts | 302° |
| 2026-04-26 12:28 | 25.23863 | 55.38995 | 36 ft | 112 kts | 302° |
| 2026-04-26 12:28 | 25.24234 | 55.38335 | 20 ft | 90 kts | 302° |
| 2026-04-26 12:28 | 25.24525 | 55.37805 | 20 ft | 71 kts | 302° |
| 2026-04-26 12:29 | 25.24749 | 55.37371 | 21 ft | 56 kts | 290° |
| 2026-04-26 12:29 | 25.24787 | 55.37096 | 19 ft | 12 kts | 271° |
| 2026-04-26 12:29 | 25.24791 | 55.37040 | 19 ft | 0 kts | 276° |
| 2026-04-26 12:30 | 25.24791 | 55.37032 | 19 ft | 4 kts | 272° |
| 2026-04-26 12:30 | 25.24791 | 55.37017 | 19 ft | 0 kts | 271° |
| 2026-04-26 12:31 | 25.24820 | 55.36991 | 19 ft | 7 kts | 11° |
| 2026-04-26 12:31 | 25.24830 | 55.36995 | 20 ft | 0 kts | 24° |